createdAt,value
2022-10-22T00:03:41.221Z,13.20
2022-10-22T00:08:43.637Z,13.50
2022-10-22T00:18:55.052Z,13.60
2022-10-22T00:23:57.583Z,13.60
2022-10-22T00:29:00.045Z,13.60
2022-10-22T00:34:02.707Z,13.70
2022-10-22T00:39:05.217Z,13.50
2022-10-22T00:44:07.750Z,13.20
2022-10-22T00:49:10.164Z,13.70
2022-10-22T00:54:12.734Z,13.50
2022-10-22T00:59:17.077Z,13.50
2022-10-22T01:04:20.809Z,13.60
2022-10-22T01:09:44.985Z,14.30
2022-10-22T01:15:10.256Z,14.00
2022-10-22T01:20:48.384Z,13.90
2022-10-22T01:25:56.259Z,14.20
2022-10-22T01:31:01.208Z,14.40
2022-10-22T01:36:04.985Z,14.40
2022-10-22T01:41:08.746Z,14.50
2022-10-22T01:46:12.918Z,14.20
2022-10-22T01:51:36.663Z,14.30
2022-10-22T01:57:06.972Z,14.40
2022-10-22T02:08:08.845Z,15.30
2022-10-22T02:13:17.354Z,15.00
2022-10-22T02:18:23.708Z,15.30
2022-10-22T02:23:27.091Z,15.50
2022-10-22T02:28:35.169Z,15.50
2022-10-22T02:33:46.768Z,15.60
2022-10-22T02:38:51.549Z,15.60
2022-10-22T02:43:55.961Z,15.60
2022-10-22T02:48:58.402Z,15.40
2022-10-22T02:54:00.861Z,15.70
2022-10-22T02:59:03.454Z,15.80
2022-10-22T03:04:06.098Z,16.10
2022-10-22T03:09:08.550Z,15.90
2022-10-22T03:14:11.314Z,16.00
2022-10-22T03:19:13.924Z,15.90
2022-10-22T03:24:22.337Z,15.90
2022-10-22T03:29:27.388Z,15.70
2022-10-22T03:34:30.187Z,15.90
2022-10-22T03:39:34.975Z,16.00
2022-10-22T03:44:39.676Z,16.30
2022-10-22T03:49:42.369Z,16.30
2022-10-22T03:54:44.992Z,16.30
2022-10-22T03:59:47.507Z,16.30
2022-10-22T04:04:49.886Z,16.10
2022-10-22T04:09:52.538Z,15.80
2022-10-22T04:14:54.932Z,15.40
2022-10-22T04:19:57.420Z,15.10
2022-10-22T04:24:59.872Z,15.20
2022-10-22T04:30:04.139Z,15.70
2022-10-22T04:35:06.978Z,15.40
2022-10-22T04:40:10.250Z,15.40
2022-10-22T04:45:12.781Z,15.70
2022-10-22T04:50:15.401Z,15.50
2022-10-22T04:55:18.017Z,15.90
2022-10-22T05:00:20.622Z,15.70
2022-10-22T05:05:23.070Z,16.00
2022-10-22T05:10:25.523Z,16.00
2022-10-22T05:15:27.930Z,16.00
2022-10-22T05:20:30.379Z,16.10
2022-10-22T05:25:36.867Z,16.00
2022-10-22T05:30:39.248Z,16.20
2022-10-22T05:35:46.634Z,15.90
2022-10-22T05:40:59.189Z,16.00
2022-10-22T05:46:04.210Z,15.80
2022-10-22T05:51:09.636Z,15.90
2022-10-22T05:56:15.894Z,15.80
2022-10-22T06:01:20.949Z,15.90
2022-10-22T06:06:29.721Z,16.10
2022-10-22T06:11:34.993Z,15.80
2022-10-22T06:16:38.127Z,15.50
2022-10-22T06:21:40.753Z,15.90
2022-10-22T06:26:43.888Z,15.90
2022-10-22T06:31:46.326Z,15.90
2022-10-22T06:36:48.807Z,16.10
2022-10-22T06:41:51.228Z,16.10
2022-10-22T06:46:53.992Z,16.00
2022-10-22T06:51:56.360Z,16.00
2022-10-22T06:56:58.729Z,15.80
2022-10-22T07:02:01.130Z,15.90
2022-10-22T07:07:04.879Z,15.80
2022-10-22T07:12:07.482Z,15.50
2022-10-22T07:17:10.194Z,15.50
2022-10-22T07:22:12.634Z,15.40
2022-10-22T07:27:15.047Z,15.70
2022-10-22T07:32:19.653Z,15.80
2022-10-22T07:37:25.435Z,15.40
2022-10-22T07:42:27.869Z,15.60
2022-10-22T07:47:30.437Z,16.00
2022-10-22T07:52:33.059Z,16.00
2022-10-22T07:57:37.068Z,15.70
2022-10-22T08:02:39.873Z,15.50
2022-10-22T08:07:42.552Z,15.80
2022-10-22T08:12:45.035Z,15.80
2022-10-22T08:17:47.477Z,15.60
2022-10-22T08:22:49.941Z,15.30
2022-10-22T08:27:52.448Z,15.80
2022-10-22T08:32:54.972Z,16.00
2022-10-22T08:37:57.561Z,16.00
2022-10-22T08:43:05.956Z,16.20
2022-10-22T08:48:43.773Z,16.10
2022-10-22T08:53:49.149Z,16.20
2022-10-22T08:59:32.057Z,16.30
2022-10-22T09:04:41.907Z,16.00
2022-10-22T09:09:51.459Z,16.20
2022-10-22T09:14:54.426Z,16.30
2022-10-22T09:20:10.482Z,16.40
2022-10-22T09:25:22.312Z,15.60
2022-10-22T09:30:28.515Z,15.80
2022-10-22T09:35:34.766Z,16.10
2022-10-22T09:40:51.137Z,16.00
2022-10-22T09:46:02.769Z,14.90
2022-10-22T09:51:21.945Z,14.10
2022-10-22T09:56:35.512Z,15.60
2022-10-22T10:01:41.016Z,16.00
2022-10-22T10:06:44.798Z,16.00
2022-10-22T10:12:04.402Z,16.00
2022-10-22T10:17:31.504Z,16.00
2022-10-22T10:22:53.123Z,16.20
2022-10-22T10:27:55.577Z,16.20
2022-10-22T10:33:00.886Z,16.20
2022-10-22T10:38:18.472Z,16.20
2022-10-22T10:43:41.266Z,16.40
2022-10-22T10:48:54.889Z,16.50
2022-10-22T10:54:26.579Z,16.70
2022-10-22T10:59:46.489Z,16.70
2022-10-22T11:05:10.452Z,16.70
2022-10-22T11:11:02.613Z,16.60
2022-10-22T11:16:31.023Z,16.60
2022-10-22T11:21:45.279Z,16.60
2022-10-22T11:27:04.439Z,16.50
2022-10-22T11:32:15.872Z,16.60
2022-10-22T11:37:18.993Z,16.60
2022-10-22T11:42:41.033Z,16.60
2022-10-22T11:48:10.776Z,16.70
2022-10-22T11:53:13.244Z,16.80
2022-10-22T11:58:35.883Z,16.50
2022-10-22T12:03:44.804Z,17.00
2022-10-22T12:08:50.426Z,17.50
2022-10-22T12:14:14.711Z,17.70
2022-10-22T12:19:26.211Z,18.10
2022-10-22T12:24:35.400Z,18.10
2022-10-22T12:29:37.916Z,18.10
2022-10-22T12:34:47.448Z,18.20
2022-10-22T12:39:51.165Z,18.20
2022-10-22T12:44:57.200Z,18.40
2022-10-22T12:50:03.949Z,18.20
2022-10-22T12:55:10.351Z,18.60
2022-10-22T13:00:28.867Z,18.50
2022-10-22T13:05:38.947Z,18.40
2022-10-22T13:10:49.183Z,18.40
2022-10-22T13:15:51.570Z,18.50
2022-10-22T13:21:01.944Z,18.40
2022-10-22T13:26:18.137Z,18.40
2022-10-22T13:31:22.964Z,18.40
2022-10-22T13:36:25.699Z,18.30
2022-10-22T13:41:32.297Z,15.80
2022-10-22T13:46:40.587Z,14.70
2022-10-22T13:51:44.023Z,14.40
2022-10-22T13:56:46.967Z,13.80
2022-10-22T14:01:49.526Z,13.60
2022-10-22T14:06:52.115Z,13.80
2022-10-22T14:11:54.608Z,13.60
2022-10-22T14:16:56.996Z,13.50
2022-10-22T14:21:59.486Z,13.70
2022-10-22T14:27:01.949Z,13.80
2022-10-22T14:32:06.478Z,13.80
2022-10-22T14:37:26.920Z,13.80
2022-10-22T14:42:30.105Z,13.90
2022-10-22T14:47:33.363Z,13.40
2022-10-22T14:52:35.837Z,13.30
2022-10-22T14:57:41.728Z,13.30
2022-10-22T15:02:44.963Z,13.30
2022-10-22T15:07:47.709Z,13.40
2022-10-22T15:12:50.273Z,13.30
2022-10-22T15:17:53.006Z,13.40
2022-10-22T15:22:56.483Z,13.40
2022-10-22T15:28:04.627Z,16.40
2022-10-22T15:33:10.869Z,17.10
2022-10-22T15:38:13.272Z,17.40
2022-10-22T15:43:15.717Z,17.30
2022-10-22T15:48:18.069Z,17.50
2022-10-22T15:53:20.534Z,17.60
2022-10-22T15:58:23.165Z,17.90
2022-10-22T16:03:25.869Z,17.60
2022-10-22T16:08:28.872Z,17.70
2022-10-22T16:13:31.678Z,17.70
2022-10-22T16:18:34.460Z,17.80
2022-10-22T16:23:36.916Z,18.00
2022-10-22T16:28:39.289Z,18.00
2022-10-22T16:33:47.807Z,18.00
2022-10-22T16:38:51.697Z,18.10
2022-10-22T16:43:55.518Z,17.80
2022-10-22T16:48:58.310Z,17.70
2022-10-22T16:54:00.669Z,17.80
2022-10-22T16:59:03.195Z,18.00
2022-10-22T17:04:05.682Z,17.90
2022-10-22T17:09:08.212Z,17.90
2022-10-22T17:14:10.711Z,17.80
2022-10-22T17:19:15.832Z,17.90
2022-10-22T17:24:18.601Z,17.90
2022-10-22T17:29:22.139Z,17.70
2022-10-22T17:34:24.934Z,17.70
2022-10-22T17:39:27.513Z,17.60
2022-10-22T17:44:30.054Z,17.60
2022-10-22T17:49:32.460Z,17.50
2022-10-22T17:54:35.242Z,17.40
2022-10-22T17:59:37.810Z,17.60
2022-10-22T18:04:40.291Z,17.70
2022-10-22T18:09:43.027Z,17.70
2022-10-22T18:14:47.183Z,17.70
2022-10-22T18:19:49.616Z,17.70
2022-10-22T18:24:53.121Z,17.40
2022-10-22T18:29:55.542Z,17.40
2022-10-22T18:34:58.005Z,17.30
2022-10-22T18:40:00.453Z,17.40
2022-10-22T18:45:03.216Z,17.30
2022-10-22T18:50:06.213Z,17.50
2022-10-22T18:55:08.733Z,17.50
2022-10-22T19:00:11.802Z,17.50
2022-10-22T19:05:14.278Z,17.50
2022-10-22T19:10:17.796Z,17.60
2022-10-22T19:15:20.248Z,17.50
2022-10-22T19:20:22.683Z,17.60
2022-10-22T19:25:25.172Z,17.70
2022-10-22T19:30:27.685Z,17.50
2022-10-22T19:35:30.358Z,17.60
2022-10-22T19:40:32.876Z,17.70
2022-10-22T19:45:39.764Z,17.60
2022-10-22T19:50:42.240Z,17.50
2022-10-22T19:55:45.160Z,17.50
2022-10-22T20:00:47.590Z,14.20
2022-10-22T20:05:53.107Z,16.20
2022-10-22T20:10:55.530Z,16.50
2022-10-22T20:15:57.924Z,17.00
2022-10-22T20:21:05.624Z,17.30
2022-10-22T20:26:08.557Z,17.50
2022-10-22T20:31:17.012Z,17.60
2022-10-22T20:36:22.785Z,17.50
2022-10-22T20:41:25.364Z,17.50
2022-10-22T20:46:30.755Z,17.40
2022-10-22T20:51:34.942Z,17.50
2022-10-22T20:56:39.349Z,17.50
2022-10-22T21:01:46.661Z,17.40
2022-10-22T21:06:50.356Z,17.20
2022-10-22T21:11:57.109Z,17.00
2022-10-22T21:16:59.898Z,16.80
2022-10-22T21:22:02.450Z,16.70
2022-10-22T21:27:07.271Z,16.50
2022-10-22T21:32:09.843Z,16.40
2022-10-22T21:37:12.253Z,16.60
2022-10-22T21:42:17.619Z,16.60
2022-10-22T21:47:20.082Z,17.00
2022-10-22T21:52:22.585Z,16.80
2022-10-22T21:57:24.982Z,16.70
2022-10-22T22:02:28.819Z,16.80
2022-10-22T22:07:31.243Z,16.90
2022-10-22T22:12:33.589Z,16.90
2022-10-22T22:17:36.532Z,17.00
2022-10-22T22:22:40.295Z,16.80
2022-10-22T22:27:43.231Z,16.60
2022-10-22T22:32:45.865Z,16.70
2022-10-22T22:37:48.427Z,16.50
2022-10-22T22:42:50.881Z,16.80
2022-10-22T22:47:53.235Z,17.00
2022-10-22T22:52:55.638Z,17.10
2022-10-22T22:57:58.655Z,17.10
2022-10-22T23:03:01.107Z,17.30
2022-10-22T23:08:03.514Z,17.00
2022-10-22T23:13:05.901Z,17.20
2022-10-22T23:18:08.279Z,17.30
2022-10-22T23:23:10.666Z,17.30
2022-10-22T23:28:13.070Z,17.30
2022-10-22T23:33:16.459Z,17.20
2022-10-22T23:38:19.112Z,17.20
2022-10-22T23:43:21.483Z,17.20
2022-10-22T23:48:24.170Z,17.20
2022-10-22T23:53:26.746Z,17.10
2022-10-22T23:58:29.140Z,17.30
